sensor_id;sensor_type;location;lat;lon;timestamp;pressure;altitude;pressure_sealevel;temperature;humidity
69247;BME280;56358;56.328;43.992;2024-01-15T00:01:04;99358.50;;;-12.42;67.09
69247;BME280;56358;56.328;43.992;2024-01-15T00:03:05;99367.13;;;-12.42;67.19
69247;BME280;56358;56.328;43.992;2024-01-15T00:05:06;99459.91;;;-11.82;67.39
69247;BME280;56358;56.328;43.992;2024-01-15T00:07:07;99453.03;;;-11.83;67.52
69247;BME280;56358;56.328;43.992;2024-01-15T00:09:08;99441.88;;;-11.88;67.64
69247;BME280;56358;56.328;43.992;2024-01-15T00:11:09;99449.56;;;-11.75;67.52
69247;BME280;56358;56.328;43.992;2024-01-15T00:13:10;99422.03;;;-11.93;67.75
69247;BME280;56358;56.328;43.992;2024-01-15T00:15:11;99435.81;;;-11.82;67.52
69247;BME280;56358;56.328;43.992;2024-01-15T00:17:11;99435.81;;;-11.82;67.62
69247;BME280;56358;56.328;43.992;2024-01-15T00:19:31;99442.63;;;-11.67;68.23
69247;BME280;56358;56.328;43.992;2024-01-15T00:21:32;99451.28;;;-11.76;68.41
69247;BME280;56358;56.328;43.992;2024-01-15T00:23:33;99446.09;;;-11.70;68.88
69247;BME280;56358;56.328;43.992;2024-01-15T00:25:33;99360.13;;;-12.15;68.80
69247;BME280;56358;56.328;43.992;2024-01-15T00:27:34;99444.38;;;-11.66;69.08
69247;BME280;56358;56.328;43.992;2024-01-15T00:29:35;99352.41;;;-12.17;69.21
69247;BME280;56358;56.328;43.992;2024-01-15T00:31:35;99451.19;;;-11.57;69.32
69247;BME280;56358;56.328;43.992;2024-01-15T00:33:36;99455.50;;;-11.55;69.50
69247;BME280;56358;56.328;43.992;2024-01-15T00:35:37;99409.03;;;-11.69;69.39
69247;BME280;56358;56.328;43.992;2024-01-15T00:37:38;99414.19;;;-11.67;69.81
69247;BME280;56358;56.328;43.992;2024-01-15T00:39:38;99436.53;;;-11.52;69.56
69247;BME280;56358;56.328;43.992;2024-01-15T00:41:39;99430.56;;;-11.68;69.71
69247;BME280;56358;56.328;43.992;2024-01-15T00:43:39;99436.56;;;-11.58;69.64
69247;BME280;56358;56.328;43.992;2024-01-15T00:45:40;99438.28;;;-11.57;69.23
69247;BME280;56358;56.328;43.992;2024-01-15T00:47:41;99429.75;;;-11.76;69.54
69247;BME280;56358;56.328;43.992;2024-01-15T00:49:42;99432.25;;;-11.63;69.37
69247;BME280;56358;56.328;43.992;2024-01-15T00:51:42;99429.69;;;-11.61;69.26
69247;BME280;56358;56.328;43.992;2024-01-15T00:53:43;99424.53;;;-11.66;69.09
69247;BME280;56358;56.328;43.992;2024-01-15T00:55:44;99335.19;;;-12.27;68.96
69247;BME280;56358;56.328;43.992;2024-01-15T00:57:44;99423.66;;;-11.66;69.06
69247;BME280;56358;56.328;43.992;2024-01-15T01:02:05;99434.88;;;-11.66;69.32
69247;BME280;56358;56.328;43.992;2024-01-15T01:04:05;99418.50;;;-11.68;68.86
69247;BME280;56358;56.328;43.992;2024-01-15T01:06:06;99420.25;;;-11.71;68.80
69247;BME280;56358;56.328;43.992;2024-01-15T01:10:26;99411.63;;;-11.75;68.95
69247;BME280;56358;56.328;43.992;2024-01-15T01:12:27;99422.84;;;-11.73;68.76
69247;BME280;56358;56.328;43.992;2024-01-15T01:14:28;99380.72;;;-11.95;68.98
69247;BME280;56358;56.328;43.992;2024-01-15T01:16:28;99412.50;;;-11.74;68.90
69247;BME280;56358;56.328;43.992;2024-01-15T01:18:29;99406.47;;;-11.75;68.63
69247;BME280;56358;56.328;43.992;2024-01-15T01:20:30;99389.25;;;-11.81;68.57
69247;BME280;56358;56.328;43.992;2024-01-15T01:22:30;99408.19;;;-11.72;68.34
69247;BME280;56358;56.328;43.992;2024-01-15T01:24:31;99390.97;;;-11.83;68.28
69247;BME280;56358;56.328;43.992;2024-01-15T01:26:32;99403.03;;;-11.77;68.59
69247;BME280;56358;56.328;43.992;2024-01-15T01:28:33;99356.63;;;-12.02;68.25
69247;BME280;56358;56.328;43.992;2024-01-15T01:30:33;99410.78;;;-11.75;68.13
69247;BME280;56358;56.328;43.992;2024-01-15T01:32:34;99396.13;;;-11.76;67.90
69247;BME280;56358;56.328;43.992;2024-01-15T01:34:40;99385.78;;;-11.76;68.05
69247;BME280;56358;56.328;43.992;2024-01-15T01:36:44;99387.53;;;-11.77;68.19
69247;BME280;56358;56.328;43.992;2024-01-15T01:38:45;99384.91;;;-11.74;68.25
69247;BME280;56358;56.328;43.992;2024-01-15T01:40:46;99378.88;;;-11.76;68.21
69247;BME280;56358;56.328;43.992;2024-01-15T01:42:48;99339.34;;;-11.92;68.12
69247;BME280;56358;56.328;43.992;2024-01-15T01:44:48;99372.00;;;-11.75;68.37
69247;BME280;56358;56.328;43.992;2024-01-15T01:47:08;99378.03;;;-11.72;68.25
69247;BME280;56358;56.328;43.992;2024-01-15T01:49:09;99366.84;;;-11.75;68.31
69247;BME280;56358;56.328;43.992;2024-01-15T01:51:11;99370.31;;;-11.81;68.75
69247;BME280;56358;56.328;43.992;2024-01-15T01:53:30;99375.44;;;-11.76;68.36
69247;BME280;56358;56.328;43.992;2024-01-15T01:55:32;99364.28;;;-11.78;68.58
69247;BME280;56358;56.328;43.992;2024-01-15T01:57:53;99366.00;;;-11.82;68.71
69247;BME280;56358;56.328;43.992;2024-01-15T01:59:55;99341.19;;;-12.08;68.84
69247;BME280;56358;56.328;43.992;2024-01-15T02:01:55;99250.06;;;-12.50;68.42
69247;BME280;56358;56.328;43.992;2024-01-15T02:03:56;99361.72;;;-11.91;68.59
69247;BME280;56358;56.328;43.992;2024-01-15T02:06:16;99369.50;;;-11.94;68.89
69247;BME280;56358;56.328;43.992;2024-01-15T02:08:16;99360.94;;;-11.98;68.90
69247;BME280;56358;56.328;43.992;2024-01-15T02:10:17;99360.94;;;-11.98;68.90
69247;BME280;56358;56.328;43.992;2024-01-15T02:12:19;99299.97;;;-12.43;68.81
69247;BME280;56358;56.328;43.992;2024-01-15T02:14:20;99278.50;;;-12.53;69.16
69247;BME280;56358;56.328;43.992;2024-01-15T02:16:22;99360.16;;;-12.12;69.66
69247;BME280;56358;56.328;43.992;2024-01-15T02:18:23;99367.81;;;-11.97;68.75
69247;BME280;56358;56.328;43.992;2024-01-15T02:20:24;99365.28;;;-12.01;68.80
69247;BME280;56358;56.328;43.992;2024-01-15T02:22:25;99348.09;;;-12.15;68.96
69247;BME280;56358;56.328;43.992;2024-01-15T02:24:44;99366.09;;;-11.99;69.00
69247;BME280;56358;56.328;43.992;2024-01-15T02:26:45;99371.25;;;-11.96;68.55
69247;BME280;56358;56.328;43.992;2024-01-15T02:28:46;99354.09;;;-12.06;68.43
69247;BME280;56358;56.328;43.992;2024-01-15T02:30:46;99369.56;;;-11.97;68.44
69247;BME280;56358;56.328;43.992;2024-01-15T02:32:47;99360.91;;;-11.96;68.33
69247;BME280;56358;56.328;43.992;2024-01-15T02:34:48;99382.47;;;-11.97;68.20
69247;BME280;56358;56.328;43.992;2024-01-15T02:36:48;99369.53;;;-12.00;67.86
69247;BME280;56358;56.328;43.992;2024-01-15T02:38:50;99358.41;;;-12.05;67.69
69247;BME280;56358;56.328;43.992;2024-01-15T02:40:50;99330.88;;;-12.17;67.96
69247;BME280;56358;56.328;43.992;2024-01-15T02:42:51;99253.53;;;-12.60;68.17
69247;BME280;56358;56.328;43.992;2024-01-15T02:44:52;99339.41;;;-12.03;68.25
69247;BME280;56358;56.328;43.992;2024-01-15T02:46:52;99295.63;;;-12.34;68.51
69247;BME280;56358;56.328;43.992;2024-01-15T02:48:53;99159.16;;;-13.20;68.72
69247;BME280;56358;56.328;43.992;2024-01-15T02:50:54;99345.41;;;-11.96;68.88
69247;BME280;56358;56.328;43.992;2024-01-15T02:52:54;99358.31;;;-11.96;69.03
69247;BME280;56358;56.328;43.992;2024-01-15T02:54:55;99350.56;;;-11.96;69.35
69247;BME280;56358;56.328;43.992;2024-01-15T02:56:56;99268.97;;;-12.43;69.28
69247;BME280;56358;56.328;43.992;2024-01-15T02:58:56;99366.91;;;-11.88;69.21
69247;BME280;56358;56.328;43.992;2024-01-15T03:00:57;99316.16;;;-12.04;69.39
69247;BME280;56358;56.328;43.992;2024-01-15T03:02:57;99343.63;;;-11.91;68.97
69247;BME280;56358;56.328;43.992;2024-01-15T03:04:58;99294.72;;;-12.22;69.16
69247;BME280;56358;56.328;43.992;2024-01-15T03:06:59;99342.75;;;-11.88;69.25
69247;BME280;56358;56.328;43.992;2024-01-15T03:08:59;99372.03;;;-11.89;69.42
69247;BME280;56358;56.328;43.992;2024-01-15T03:11:00;99352.28;;;-11.92;69.54
69247;BME280;56358;56.328;43.992;2024-01-15T03:13:00;99348.78;;;-11.86;69.80
69247;BME280;56358;56.328;43.992;2024-01-15T03:15:01;99338.47;;;-11.94;69.12
69247;BME280;56358;56.328;43.992;2024-01-15T03:17:02;99335.09;;;-12.01;69.60
69247;BME280;56358;56.328;43.992;2024-01-15T03:19:02;99340.19;;;-11.85;69.34
69247;BME280;56358;56.328;43.992;2024-01-15T03:21:04;99247.41;;;-12.38;69.06
69247;BME280;56358;56.328;43.992;2024-01-15T03:23:05;99355.66;;;-11.81;69.21
69247;BME280;56358;56.328;43.992;2024-01-15T03:25:06;99321.31;;;-11.98;68.97
69247;BME280;56358;56.328;43.992;2024-01-15T03:27:07;99359.06;;;-11.75;68.87
69247;BME280;56358;56.328;43.992;2024-01-15T03:29:07;99339.25;;;-11.76;68.52
69247;BME280;56358;56.328;43.992;2024-01-15T03:31:08;99316.13;;;-11.95;68.92
69247;BME280;56358;56.328;43.992;2024-01-15T03:33:09;99337.53;;;-11.79;69.15
69247;BME280;56358;56.328;43.992;2024-01-15T03:35:09;99326.44;;;-11.95;69.24
69247;BME280;56358;56.328;43.992;2024-01-15T03:37:10;99338.41;;;-11.82;69.45
69247;BME280;56358;56.328;43.992;2024-01-15T03:39:11;99321.25;;;-11.92;69.59
69247;BME280;56358;56.328;43.992;2024-01-15T03:41:30;99334.09;;;-11.78;69.65
69247;BME280;56358;56.328;43.992;2024-01-15T03:43:49;99332.34;;;-11.74;70.15
69247;BME280;56358;56.328;43.992;2024-01-15T03:45:50;99339.22;;;-11.70;70.20
69247;BME280;56358;56.328;43.992;2024-01-15T03:47:51;99308.28;;;-11.86;70.09
69247;BME280;56358;56.328;43.992;2024-01-15T03:49:52;99286.09;;;-12.15;70.12
69247;BME280;56358;56.328;43.992;2024-01-15T03:51:52;99331.44;;;-11.66;69.82
69247;BME280;56358;56.328;43.992;2024-01-15T03:56:12;99288.47;;;-11.90;70.15
69247;BME280;56358;56.328;43.992;2024-01-15T03:58:13;99314.22;;;-11.71;70.05
69247;BME280;56358;56.328;43.992;2024-01-15T04:00:15;99334.03;;;-11.67;69.92
69247;BME280;56358;56.328;43.992;2024-01-15T04:02:17;99303.91;;;-11.74;70.12
69247;BME280;56358;56.328;43.992;2024-01-15T04:04:18;99315.84;;;-11.55;70.10
69247;BME280;56358;56.328;43.992;2024-01-15T04:06:19;99331.41;;;-11.61;70.04
69247;BME280;56358;56.328;43.992;2024-01-15T04:08:20;99155.44;;;-12.59;70.21
69247;BME280;56358;56.328;43.992;2024-01-15T04:10:20;99304.69;;;-11.65;70.13
69247;BME280;56358;56.328;43.992;2024-01-15T04:12:21;99332.22;;;-11.54;70.20
69247;BME280;56358;56.328;43.992;2024-01-15T04:14:22;99324.53;;;-11.64;70.12
69247;BME280;56358;56.328;43.992;2024-01-15T04:16:22;99208.66;;;-12.32;70.11
69247;BME280;56358;56.328;43.992;2024-01-15T04:18:23;99318.47;;;-11.63;70.12
69247;BME280;56358;56.328;43.992;2024-01-15T04:20:24;99323.63;;;-11.63;70.39
69247;BME280;56358;56.328;43.992;2024-01-15T04:22:25;99232.69;;;-12.16;70.18
69247;BME280;56358;56.328;43.992;2024-01-15T04:24:26;99324.47;;;-11.54;70.39
69247;BME280;56358;56.328;43.992;2024-01-15T04:26:26;99315.84;;;-11.56;70.30
69247;BME280;56358;56.328;43.992;2024-01-15T04:28:27;99326.22;;;-11.58;70.46
69247;BME280;56358;56.328;43.992;2024-01-15T04:30:28;99340.88;;;-11.62;70.86
69247;BME280;56358;56.328;43.992;2024-01-15T04:32:28;99333.94;;;-11.53;71.16
69247;BME280;56358;56.328;43.992;2024-01-15T04:34:29;99210.31;;;-12.23;70.86
69247;BME280;56358;56.328;43.992;2024-01-15T04:36:49;99327.84;;;-11.46;71.56
69247;BME280;56358;56.328;43.992;2024-01-15T04:38:50;99326.97;;;-11.42;71.21
69247;BME280;56358;56.328;43.992;2024-01-15T04:40:50;99326.13;;;-11.46;71.24
69247;BME280;56358;56.328;43.992;2024-01-15T04:42:51;99353.72;;;-11.44;70.82
69247;BME280;56358;56.328;43.992;2024-01-15T04:44:51;99315.84;;;-11.55;71.03
69247;BME280;56358;56.328;43.992;2024-01-15T04:46:52;99332.16;;;-11.48;71.00
69247;BME280;56358;56.328;43.992;2024-01-15T04:48:53;99345.00;;;-11.33;71.09
69247;BME280;56358;56.328;43.992;2024-01-15T04:50:54;99332.91;;;-11.32;71.08
69247;BME280;56358;56.328;43.992;2024-01-15T04:52:54;99232.47;;;-11.89;70.88
69247;BME280;56358;56.328;43.992;2024-01-15T04:54:55;99257.31;;;-11.70;70.80
69247;BME280;56358;56.328;43.992;2024-01-15T04:56:56;99333.72;;;-11.25;70.45
69247;BME280;56358;56.328;43.992;2024-01-15T04:58:56;99339.69;;;-11.17;70.17
69247;BME280;56358;56.328;43.992;2024-01-15T05:00:57;99278.81;;;-11.58;69.82
69247;BME280;56358;56.328;43.992;2024-01-15T05:02:58;99327.69;;;-11.23;69.69
69247;BME280;56358;56.328;43.992;2024-01-15T05:04:58;99325.88;;;-11.15;69.59
69247;BME280;56358;56.328;43.992;2024-01-15T05:06:59;99320.75;;;-11.18;69.26
69247;BME280;56358;56.328;43.992;2024-01-15T05:09:00;99314.78;;;-11.26;69.07
69247;BME280;56358;56.328;43.992;2024-01-15T05:11:01;99329.38;;;-11.20;68.99
69247;BME280;56358;56.328;43.992;2024-01-15T05:13:01;99303.53;;;-11.26;69.48
69247;BME280;56358;56.328;43.992;2024-01-15T05:15:03;99317.31;;;-11.23;69.23
69247;BME280;56358;56.328;43.992;2024-01-15T05:17:05;99316.44;;;-11.20;69.13
69247;BME280;56358;56.328;43.992;2024-01-15T05:19:24;99318.19;;;-11.21;69.28
69247;BME280;56358;56.328;43.992;2024-01-15T05:21:25;99236.59;;;-11.67;69.24
69247;BME280;56358;56.328;43.992;2024-01-15T05:23:26;99318.97;;;-11.16;69.18
69247;BME280;56358;56.328;43.992;2024-01-15T05:25:26;99313.81;;;-11.17;69.37
69247;BME280;56358;56.328;43.992;2024-01-15T05:27:27;99344.00;;;-11.16;69.61
69247;BME280;56358;56.328;43.992;2024-01-15T05:29:28;99304.34;;;-11.17;69.64
69247;BME280;56358;56.328;43.992;2024-01-15T05:31:28;99236.53;;;-11.54;69.70
69247;BME280;56358;56.328;43.992;2024-01-15T05:33:29;99320.69;;;-11.12;69.61
69247;BME280;56358;56.328;43.992;2024-01-15T05:35:30;99229.69;;;-11.63;69.50
69247;BME280;56358;56.328;43.992;2024-01-15T05:37:30;99312.09;;;-11.15;69.86
69247;BME280;56358;56.328;43.992;2024-01-15T05:39:31;99321.56;;;-11.16;69.87
69247;BME280;56358;56.328;43.992;2024-01-15T05:41:32;99354.34;;;-11.15;69.94
69247;BME280;56358;56.328;43.992;2024-01-15T05:43:51;99158.59;;;-12.12;69.52
69247;BME280;56358;56.328;43.992;2024-01-15T05:46:10;99325.00;;;-11.14;69.56
69247;BME280;56358;56.328;43.992;2024-01-15T05:48:12;99346.53;;;-11.08;69.77
69247;BME280;56358;56.328;43.992;2024-01-15T05:50:12;99287.19;;;-11.27;70.05
69247;BME280;56358;56.328;43.992;2024-01-15T05:52:13;99311.41;;;-11.34;69.77
69247;BME280;56358;56.328;43.992;2024-01-15T05:54:14;99275.19;;;-11.37;69.52
69247;BME280;56358;56.328;43.992;2024-01-15T05:56:14;99320.63;;;-11.05;69.75
69247;BME280;56358;56.328;43.992;2024-01-15T05:58:15;99313.69;;;-11.02;69.70
69247;BME280;56358;56.328;43.992;2024-01-15T06:00:16;99337.00;;;-11.02;69.82
69247;BME280;56358;56.328;43.992;2024-01-15T06:02:16;99279.28;;;-11.15;69.70
69247;BME280;56358;56.328;43.992;2024-01-15T06:04:17;99226.16;;;-11.51;69.75
69247;BME280;56358;56.328;43.992;2024-01-15T06:06:18;99301.63;;;-11.03;69.58
69247;BME280;56358;56.328;43.992;2024-01-15T06:08:18;99299.91;;;-11.04;69.53
69247;BME280;56358;56.328;43.992;2024-01-15T06:12:59;99321.31;;;-10.86;69.14
69247;BME280;56358;56.328;43.992;2024-01-15T06:15:18;99317.78;;;-10.76;69.21
69247;BME280;56358;56.328;43.992;2024-01-15T06:17:19;99267.88;;;-10.92;69.38
69247;BME280;56358;56.328;43.992;2024-01-15T06:19:19;99180.53;;;-11.57;69.17
69247;BME280;56358;56.328;43.992;2024-01-15T06:21:20;99312.44;;;-10.59;69.23
69247;BME280;56358;56.328;43.992;2024-01-15T06:23:20;99320.16;;;-10.56;68.73
69247;BME280;56358;56.328;43.992;2024-01-15T06:25:21;99218.88;;;-11.10;68.41
69247;BME280;56358;56.328;43.992;2024-01-15T06:27:22;99321.03;;;-10.58;68.80
69247;BME280;56358;56.328;43.992;2024-01-15T06:29:45;99314.03;;;-10.47;68.98
69247;BME280;56358;56.328;43.992;2024-01-15T06:31:46;99321.72;;;-10.42;68.96
69247;BME280;56358;56.328;43.992;2024-01-15T06:33:47;99308.81;;;-10.44;69.03
69247;BME280;56358;56.328;43.992;2024-01-15T06:35:48;99299.31;;;-10.45;68.83
69247;BME280;56358;56.328;43.992;2024-01-15T06:37:49;99297.59;;;-10.45;68.92
69247;BME280;56358;56.328;43.992;2024-01-15T06:39:50;99278.00;;;-10.72;68.75
69247;BME280;56358;56.328;43.992;2024-01-15T06:41:51;99301.06;;;-10.46;68.68
69247;BME280;56358;56.328;43.992;2024-01-15T06:43:52;99170.66;;;-11.19;68.75
69247;BME280;56358;56.328;43.992;2024-01-15T06:45:52;99297.47;;;-10.37;68.87
69247;BME280;56358;56.328;43.992;2024-01-15T06:47:53;99302.66;;;-10.35;68.49
69247;BME280;56358;56.328;43.992;2024-01-15T06:49:54;99302.66;;;-10.35;68.30
69247;BME280;56358;56.328;43.992;2024-01-15T06:51:55;99299.94;;;-10.28;68.11
69247;BME280;56358;56.328;43.992;2024-01-15T06:53:56;99203.00;;;-10.80;67.98
69247;BME280;56358;56.328;43.992;2024-01-15T06:55:57;99307.56;;;-10.17;67.98
69247;BME280;56358;56.328;43.992;2024-01-15T06:58:16;99303.38;;;-10.25;67.72
69247;BME280;56358;56.328;43.992;2024-01-15T07:00:17;99298.97;;;-10.19;67.75
69247;BME280;56358;56.328;43.992;2024-01-15T07:02:37;99298.16;;;-10.24;68.27
69247;BME280;56358;56.328;43.992;2024-01-15T07:04:37;99299.84;;;-10.20;67.80
69247;BME280;56358;56.328;43.992;2024-01-15T07:06:56;99304.97;;;-10.17;68.15
69247;BME280;56358;56.328;43.992;2024-01-15T07:08:57;99298.91;;;-10.16;68.38
69247;BME280;56358;56.328;43.992;2024-01-15T07:10:58;99296.28;;;-10.11;68.78
69247;BME280;56358;56.328;43.992;2024-01-15T07:12:58;99303.91;;;-9.99;68.40
69247;BME280;56358;56.328;43.992;2024-01-15T07:14:59;99305.53;;;-9.91;68.05
69247;BME280;56358;56.328;43.992;2024-01-15T07:17:00;99267.78;;;-10.14;68.09
69247;BME280;56358;56.328;43.992;2024-01-15T07:19:01;99248.91;;;-10.22;68.55
69247;BME280;56358;56.328;43.992;2024-01-15T07:21:02;99311.47;;;-9.82;68.29
69247;BME280;56358;56.328;43.992;2024-01-15T07:23:03;99220.50;;;-10.32;68.13
69247;BME280;56358;56.328;43.992;2024-01-15T07:25:04;99193.91;;;-10.41;68.39
69247;BME280;56358;56.328;43.992;2024-01-15T07:27:07;99327.56;;;-9.60;68.18
69247;BME280;56358;56.328;43.992;2024-01-15T07:29:09;99320.56;;;-9.54;67.80
69247;BME280;56358;56.328;43.992;2024-01-15T07:31:09;99323.16;;;-9.54;67.80
69247;BME280;56358;56.328;43.992;2024-01-15T07:33:10;99318.81;;;-9.54;67.18
69247;BME280;56358;56.328;43.992;2024-01-15T07:35:11;99324.88;;;-9.52;67.61
69247;BME280;56358;56.328;43.992;2024-01-15T07:37:12;99308.38;;;-9.48;66.75
69247;BME280;56358;56.328;43.992;2024-01-15T07:39:13;99309.13;;;-9.41;67.18
69247;BME280;56358;56.328;43.992;2024-01-15T07:41:14;99304.75;;;-9.39;66.88
69247;BME280;56358;56.328;43.992;2024-01-15T07:43:15;99321.97;;;-9.32;66.87
69247;BME280;56358;56.328;43.992;2024-01-15T07:45:15;99303.94;;;-9.41;67.14
69247;BME280;56358;56.328;43.992;2024-01-15T07:47:17;99320.38;;;-9.42;66.59
69247;BME280;56358;56.328;43.992;2024-01-15T07:49:18;99315.97;;;-9.37;66.85
69247;BME280;56358;56.328;43.992;2024-01-15T07:51:36;99308.06;;;-9.28;67.13
69247;BME280;56358;56.328;43.992;2024-01-15T07:53:37;99307.22;;;-9.31;67.07
69247;BME280;56358;56.328;43.992;2024-01-15T07:55:38;99307.97;;;-9.23;66.19
69247;BME280;56358;56.328;43.992;2024-01-15T07:57:38;99300.13;;;-9.18;66.45
69247;BME280;56358;56.328;43.992;2024-01-15T07:59:39;99201.47;;;-9.71;66.75
69247;BME280;56358;56.328;43.992;2024-01-15T08:04:00;99254.44;;;-9.30;65.65
69247;BME280;56358;56.328;43.992;2024-01-15T08:06:00;99220.25;;;-9.55;65.64
69247;BME280;56358;56.328;43.992;2024-01-15T08:08:01;99279.34;;;-9.18;65.70
69247;BME280;56358;56.328;43.992;2024-01-15T08:10:21;99300.66;;;-8.99;65.85
69247;BME280;56358;56.328;43.992;2024-01-15T08:12:21;99301.63;;;-9.05;64.68
69247;BME280;56358;56.328;43.992;2024-01-15T08:14:22;99291.25;;;-9.05;64.86
69247;BME280;56358;56.328;43.992;2024-01-15T08:16:23;99294.09;;;-9.22;64.59
69247;BME280;56358;56.328;43.992;2024-01-15T08:18:25;99231.75;;;-9.70;65.77
69247;BME280;56358;56.328;43.992;2024-01-15T08:20:26;99204.19;;;-9.79;65.90
69247;BME280;56358;56.328;43.992;2024-01-15T08:22:26;99296.59;;;-9.14;66.04
69247;BME280;56358;56.328;43.992;2024-01-15T08:24:27;99297.31;;;-9.06;66.09
69247;BME280;56358;56.328;43.992;2024-01-15T08:26:29;99301.56;;;-9.02;66.14
69247;BME280;56358;56.328;43.992;2024-01-15T08:28:30;99292.94;;;-9.02;65.87
69247;BME280;56358;56.328;43.992;2024-01-15T08:30:31;99291.97;;;-8.97;65.71
69247;BME280;56358;56.328;43.992;2024-01-15T08:32:31;99290.34;;;-9.02;65.38
69247;BME280;56358;56.328;43.992;2024-01-15T08:34:32;99275.91;;;-9.20;65.67
69247;BME280;56358;56.328;43.992;2024-01-15T08:36:33;99290.53;;;-9.13;65.02
69247;BME280;56358;56.328;43.992;2024-01-15T08:38:35;99281.91;;;-9.17;65.81
69247;BME280;56358;56.328;43.992;2024-01-15T08:40:36;99293.91;;;-9.08;66.10
69247;BME280;56358;56.328;43.992;2024-01-15T08:42:37;99295.63;;;-9.08;66.03
69247;BME280;56358;56.328;43.992;2024-01-15T08:44:37;99297.25;;;-9.01;65.48
69247;BME280;56358;56.328;43.992;2024-01-15T08:46:40;99304.06;;;-8.96;65.73
69247;BME280;56358;56.328;43.992;2024-01-15T08:48:41;99300.47;;;-8.88;65.86
69247;BME280;56358;56.328;43.992;2024-01-15T08:50:42;99290.75;;;-8.79;65.61
69247;BME280;56358;56.328;43.992;2024-01-15T08:52:42;99223.03;;;-9.15;65.29
69247;BME280;56358;56.328;43.992;2024-01-15T08:54:43;99281.31;;;-8.81;65.27
69247;BME280;56358;56.328;43.992;2024-01-15T08:56:44;99271.78;;;-8.82;65.05
69247;BME280;56358;56.328;43.992;2024-01-15T08:58:44;99294.41;;;-8.87;65.14
69247;BME280;56358;56.328;43.992;2024-01-15T09:00:46;99266.94;;;-9.01;65.03
69247;BME280;56358;56.328;43.992;2024-01-15T09:02:47;99301.31;;;-8.86;65.15
69247;BME280;56358;56.328;43.992;2024-01-15T09:04:47;99290.22;;;-8.95;65.07
69247;BME280;56358;56.328;43.992;2024-01-15T09:07:07;99294.66;;;-9.03;65.92
69247;BME280;56358;56.328;43.992;2024-01-15T09:09:08;99286.84;;;-9.01;66.13
69247;BME280;56358;56.328;43.992;2024-01-15T09:11:08;99267.13;;;-9.12;66.07
69247;BME280;56358;56.328;43.992;2024-01-15T09:13:09;99296.16;;;-8.89;66.24
69247;BME280;56358;56.328;43.992;2024-01-15T09:15:10;99254.03;;;-9.07;66.10
69247;BME280;56358;56.328;43.992;2024-01-15T09:17:10;99280.50;;;-8.85;66.10
69247;BME280;56358;56.328;43.992;2024-01-15T09:19:11;99277.00;;;-8.82;66.23
69247;BME280;56358;56.328;43.992;2024-01-15T09:21:12;99046.56;;;-10.12;66.12
69247;BME280;56358;56.328;43.992;2024-01-15T09:23:12;99234.97;;;-9.06;65.92
69247;BME280;56358;56.328;43.992;2024-01-15T09:25:13;99284.41;;;-8.62;66.13
69247;BME280;56358;56.328;43.992;2024-01-15T09:27:14;99210.66;;;-9.02;66.47
69247;BME280;56358;56.328;43.992;2024-01-15T09:29:15;99281.00;;;-8.66;65.79
69247;BME280;56358;56.328;43.992;2024-01-15T09:31:16;99264.75;;;-8.76;65.92
69247;BME280;56358;56.328;43.992;2024-01-15T09:33:18;99290.22;;;-8.49;65.97
69247;BME280;56358;56.328;43.992;2024-01-15T09:35:18;99294.78;;;-8.61;65.93
69247;BME280;56358;56.328;43.992;2024-01-15T09:37:19;99288.81;;;-8.66;66.06
69247;BME280;56358;56.328;43.992;2024-01-15T09:39:19;99312.94;;;-8.59;65.91
69247;BME280;56358;56.328;43.992;2024-01-15T09:41:20;99313.81;;;-8.60;66.31
69247;BME280;56358;56.328;43.992;2024-01-15T09:43:21;99292.44;;;-8.74;66.58
69247;BME280;56358;56.328;43.992;2024-01-15T09:45:22;99304.31;;;-8.61;66.42
69247;BME280;56358;56.328;43.992;2024-01-15T09:47:23;99265.88;;;-8.92;66.31
69247;BME280;56358;56.328;43.992;2024-01-15T09:49:43;99325.28;;;-8.72;66.72
69247;BME280;56358;56.328;43.992;2024-01-15T09:51:44;99317.50;;;-8.70;67.11
69247;BME280;56358;56.328;43.992;2024-01-15T09:53:46;99321.56;;;-8.59;68.02
69247;BME280;56358;56.328;43.992;2024-01-15T09:55:49;99308.59;;;-8.57;67.23
69247;BME280;56358;56.328;43.992;2024-01-15T09:57:50;99324.13;;;-8.55;66.88
69247;BME280;56358;56.328;43.992;2024-01-15T09:59:53;99323.28;;;-8.57;67.52
69247;BME280;56358;56.328;43.992;2024-01-15T10:01:55;99322.44;;;-8.58;67.38
69247;BME280;56358;56.328;43.992;2024-01-15T10:06:35;99315.38;;;-8.50;67.61
69247;BME280;56358;56.328;43.992;2024-01-15T10:08:37;99334.41;;;-8.49;67.61
69247;BME280;56358;56.328;43.992;2024-01-15T10:10:37;99308.50;;;-8.54;67.58
69247;BME280;56358;56.328;43.992;2024-01-15T10:12:39;99310.31;;;-8.57;67.56
69247;BME280;56358;56.328;43.992;2024-01-15T10:14:40;99317.31;;;-8.63;67.51
69247;BME280;56358;56.328;43.992;2024-01-15T10:16:43;99307.84;;;-8.65;67.63
69247;BME280;56358;56.328;43.992;2024-01-15T10:19:01;99310.53;;;-8.70;68.39
69247;BME280;56358;56.328;43.992;2024-01-15T10:21:03;99197.44;;;-9.36;68.51
69247;BME280;56358;56.328;43.992;2024-01-15T10:23:05;99321.81;;;-8.71;68.59
69247;BME280;56358;56.328;43.992;2024-01-15T10:25:05;99296.91;;;-8.81;68.77
69247;BME280;56358;56.328;43.992;2024-01-15T10:27:10;99294.19;;;-8.77;68.82
69247;BME280;56358;56.328;43.992;2024-01-15T10:29:11;99290.75;;;-8.77;69.16
69247;BME280;56358;56.328;43.992;2024-01-15T10:31:11;99190.53;;;-9.36;68.88
69247;BME280;56358;56.328;43.992;2024-01-15T10:33:12;99277.97;;;-8.88;68.44
69247;BME280;56358;56.328;43.992;2024-01-15T10:35:13;99120.28;;;-9.77;68.55
69247;BME280;56358;56.328;43.992;2024-01-15T10:37:14;99203.31;;;-9.25;68.70
69247;BME280;56358;56.328;43.992;2024-01-15T10:39:14;99284.66;;;-8.74;68.45
69247;BME280;56358;56.328;43.992;2024-01-15T10:41:15;99284.84;;;-8.87;68.26
69247;BME280;56358;56.328;43.992;2024-01-15T10:43:16;99277.16;;;-8.91;68.53
69247;BME280;56358;56.328;43.992;2024-01-15T10:45:18;99301.97;;;-8.75;68.82
69247;BME280;56358;56.328;43.992;2024-01-15T10:47:19;99303.66;;;-8.72;68.65